Flight Track Log - Related Links

Times and Time Zones

All times are in EDT time to prevent confusion due to time zone crossing. See the ASQ2555 flight status page for this flight to view local times or setup timezone preferences in your user account.

Time Position Orientation Groundspeed Altitude Reporting Facility
EDT Latitude Longitude Course Direction KTS MPH feet Rate Location/Type
Thu 10:44:24 AM 32.4725 -93.8650 308° West 154 177 1,900  Level Fort Center
Thu 10:45:25 AM 32.4681 -93.9342 266° West 234 269 4,300 2,133 Climbing Fort Center
Thu 10:46:39 AM 32.4644 -94.0353 268° West 261 300 6,700 2,104 Climbing Fort Center
Thu 10:47:39 AM 32.4606 -94.1192 267° West 277 319 9,000 2,000 Climbing Fort Center
Thu 10:48:39 AM 32.4528 -94.2278 265° West 298 343 10,700 1,450 Climbing Fort Center
Thu 10:49:39 AM 32.4469 -94.3289 266° West 329 379 11,900 1,500 Climbing Fort Center
Thu 10:50:39 AM 32.4397 -94.4547 266° West 349 402 13,700 1,450 Climbing Fort Center
Thu 10:51:39 AM 32.4336 -94.5606 266° West 355 409 14,800 1,350 Climbing Fort Center
Thu 10:52:39 AM 32.4197 -94.6867 263° West 368 423 16,400 1,400 Climbing Fort Center
Thu 10:53:39 AM 32.4078 -94.8100 263° West 368 423 17,600 1,100 Climbing Fort Center
Thu 10:54:39 AM 32.3872 -94.9311 259° West 379 436 18,600 900 Climbing Fort Center
Thu 10:55:39 AM 32.3917 -95.0517 273° West 391 450 19,400 700 Climbing Fort Center
Thu 10:56:39 AM 32.3897 -95.1794 269° West 391 450 20,000 300 Climbing Fort Center
Thu 10:57:39 AM 32.3900 -95.3147 270° West 403 464 20,000  Level Fort Center
Thu 10:58:39 AM 32.3881 -95.4575 269° West 418 481 20,000  Level Fort Center
Thu 10:59:39 AM 32.3922 -95.5978 272° West 425 489 20,000  Level Fort Center
Thu 11:00:39 AM 32.3881 -95.7431 268° West 438 504 20,000 -100 Level Fort Center
Thu 11:01:39 AM 32.3897 -95.8806 271° West 432 497 19,800 -1,200 Descending Fort Center
Thu 11:02:39 AM 32.3875 -96.0333 269° West 432 497 17,600 -2,100 Descending Fort Center
Thu 11:03:39 AM 32.3847 -96.1611 269° West 411 473 15,600 -2,250 Descending Fort Center
Thu 11:04:39 AM 32.3836 -96.2892 269° West 399 459 13,100 -2,250 Descending Fort Center
Thu 11:05:39 AM 32.3825 -96.4097 269° West 380 437 11,100 -1,350 Descending Fort Center
Thu 11:06:39 AM 32.4103 -96.4833 294° West 283 326 10,400 -1,500 Descending Fort Center
Thu 11:07:39 AM 32.4733 -96.5492 319° Northwest 270 311 8,100 -1,950 Descending Fort Center
Thu 11:08:39 AM 32.5239 -96.5978 321° Northwest 270 311 6,500 -1,550 Descending Fort Center
Thu 11:09:39 AM 32.5806 -96.6589 318° Northwest 264 304 5,000 -1,200 Descending Fort Center
Thu 11:10:39 AM 32.6311 -96.7078 321° Northwest 264 304 4,100 -480 Descending Fort Center
Thu 11:11:44 AM 32.7000 -96.7667 324° Northwest 254 292 4,000 -144 Descending Dallas TRACON
Thu 11:12:44 AM 32.7500 -96.8167 320° Northwest 252 290 3,800 -476 Descending Dallas TRACON
Thu 11:13:50 AM 32.8000 -96.8833 312° West 196 226 3,000 -619 Descending Dallas TRACON
Thu 11:14:50 AM 32.8333 -96.9167 320° Northwest 162 186 2,500 -632 Descending Dallas TRACON
Thu 11:15:44 AM 32.8500 -96.9500 301° West 127 146 1,800 -730 Descending Dallas TRACON
Thu 11:16:45 AM 32.8833 -96.9833 320° Northwest 127 146 1,100 3,154 Descending Dallas TRACON
Thu 11:18:39 AM 32.9225 -97.0372 311° West 130 150 11,000 5,211 Climbing Fort Center

Login

Don't have an account? Register now (free) for customized features, flight alerts, and more!